Daisin Maru — JD3340 — position and weather

sailwx.info

Track history (hours):
 
Tides and Currents Weather Stations Pressure Air Temp Water Temp Dewpoint Dewpoint Depression Visibility Wind Speed Wind Dir Waves Ship Positions

Daisin Maru

Last reported at 2018-Jun-13 07:19 UTC. Time now 2018-Jun-19 20:05 UTC.
Position N 34°26' E 134°25'.

Length 59 m; draft 3.5 m.

Type: Cargo ship. MMSI: 431003459.

Date/timePositionNaut miles runAvg speedWind from/ knotsBaromVisibWave heightAir tempDewpointWater temp
2018-Jun-13 07:19N 34°26' E 134°25'410.8
2018-Jun-13 06:59N 34°27' E 134°29'510.7
2018-Jun-13 06:30N 34°29' E 134°35'510.4
2018-Jun-13 06:00N 34°31' E 134°41'510.0
2018-Jun-13 05:30N 34°33' E 134°46'4 9.0
2018-Jun-13 05:00N 34°35' E 134°51'5 7.8
2018-Jun-13 04:25N 34°37' E 134°56'5 6.1
2018-Jun-13 03:37N 34°37' E 135°02'1 5.5
2018-Jun-13 03:29N 34°36' E 135°03'4 8.2
2018-Jun-13 03:00N 34°36' E 135°08'510.4
2018-Jun-13 02:30N 34°37' E 135°14'510.7
2018-Jun-13 02:00N 34°38' E 135°20'510.4
2018-Jun-13 01:30N 34°39' E 135°27'1 1.9
2018-Jun-13 01:00N 34°39' E 135°28'0 0.0
2018-Jun-13 00:27N 34°39' E 135°28'0 0.0
2018-Jun-12 22:45N 34°39' E 135°28'0 0.0
2018-Jun-12 22:21N 34°39' E 135°28'0 0.0
2018-Jun-12 21:51N 34°39' E 135°28'0 0.0
2018-Jun-12 21:27N 34°39' E 135°28'0 0.0
2018-Jun-12 20:57N 34°39' E 135°28'0 0.0
2018-Jun-12 20:27N 34°39' E 135°28'0 0.0
2018-Jun-12 19:57N 34°39' E 135°28'0 0.0
2018-Jun-12 19:27N 34°39' E 135°28'0 0.0
2018-Jun-12 18:57N 34°39' E 135°28'0 0.0
2018-Jun-12 18:27N 34°39' E 135°28'0 0.0
2018-Jun-12 17:51N 34°39' E 135°28'0 0.0
2018-Jun-12 17:27N 34°39' E 135°28'0 0.0
2018-Jun-12 16:57N 34°39' E 135°28'0 0.0
2018-Jun-12 16:27N 34°39' E 135°28'0 0.0
2018-Jun-12 15:51N 34°39' E 135°28'0 0.0
2018-Jun-12 15:27N 34°39' E 135°28'0 0.0
2018-Jun-12 14:51N 34°39' E 135°28'0 0.0
2018-Jun-12 14:27N 34°39' E 135°28'0 0.0
2018-Jun-12 13:57N 34°39' E 135°28'0 0.0
2018-Jun-12 13:27N 34°39' E 135°28'0 0.0
2018-Jun-12 12:57N 34°39' E 135°28'0 0.0
2018-Jun-12 12:27N 34°39' E 135°28'0 0.0
2018-Jun-12 11:57N 34°39' E 135°28'0 0.0
2018-Jun-12 11:21N 34°39' E 135°28'0 0.0
2018-Jun-12 10:57N 34°39' E 135°28'0 0.0
2018-Jun-12 10:27N 34°39' E 135°28'0 0.0
2018-Jun-12 09:57N 34°39' E 135°28'0 0.0
2018-Jun-12 09:27N 34°39' E 135°28'0 0.0
2018-Jun-12 08:57N 34°39' E 135°28'0 0.0
2018-Jun-12 08:27N 34°39' E 135°28'0 0.0
2018-Jun-12 07:57N 34°39' E 135°28'0 0.0
2018-Jun-12 07:27N 34°39' E 135°28'0 0.0
2018-Jun-12 06:57N 34°39' E 135°28'0 0.0
2018-Jun-12 06:27N 34°39' E 135°28'0 0.0
2018-Jun-12 05:57N 34°39' E 135°28'0 0.0
2018-Jun-12 05:21N 34°39' E 135°28'0 0.0
2018-Jun-12 04:27N 34°39' E 135°28'0 0.0
2018-Jun-12 03:51N 34°39' E 135°28'0 0.0
2018-Jun-12 03:21N 34°39' E 135°28'0 0.0
2018-Jun-12 02:51N 34°39' E 135°28'0 0.0
2018-Jun-12 02:27N 34°39' E 135°28'0 0.0
2018-Jun-12 01:51N 34°39' E 135°28'0 0.0
2018-Jun-12 01:15N 34°39' E 135°28'0 0.0
2018-Jun-12 00:57N 34°39' E 135°28'0 0.0
2018-Jun-12 00:09N 34°39' E 135°28'0 0.0
2018-Jun-11 23:39N 34°39' E 135°28'0 0.0
2018-Jun-11 23:21N 34°39' E 135°28'0 0.0
2018-Jun-11 22:57N 34°39' E 135°28'0 0.0
2018-Jun-11 21:51N 34°39' E 135°28'0 0.0
2018-Jun-11 21:27N 34°39' E 135°28'0 0.0
2018-Jun-11 20:57N 34°39' E 135°28'0 0.0
2018-Jun-11 19:15N 34°39' E 135°28'0 0.0
2018-Jun-11 18:51N 34°39' E 135°28'0 0.0
2018-Jun-11 18:27N 34°39' E 135°28'0 0.0
2018-Jun-11 17:57N 34°39' E 135°28'0 0.0
2018-Jun-11 17:27N 34°39' E 135°28'0 0.0
2018-Jun-11 16:57N 34°39' E 135°28'0 0.0
2018-Jun-11 16:27N 34°39' E 135°28'0 0.0
2018-Jun-11 15:57N 34°39' E 135°28'0 0.0
2018-Jun-11 15:27N 34°39' E 135°28'0 0.0
2018-Jun-11 14:57N 34°39' E 135°28'0 0.0
2018-Jun-11 14:27N 34°39' E 135°28'0 0.0
2018-Jun-11 13:51N 34°39' E 135°28'0 0.0
2018-Jun-11 13:21N 34°39' E 135°28'0 0.0
2018-Jun-11 12:57N 34°39' E 135°28'0 0.0
2018-Jun-11 12:27N 34°39' E 135°28'0 0.0
2018-Jun-11 11:51N 34°39' E 135°28'0 0.0
2018-Jun-11 11:27N 34°39' E 135°28'0 0.0
2018-Jun-11 10:57N 34°39' E 135°28'0 0.0
2018-Jun-11 10:21N 34°39' E 135°28'0 0.0
2018-Jun-11 07:03N 34°39' E 135°28'0 0.0
2018-Jun-11 06:51N 34°39' E 135°28'2 5.3
2018-Jun-11 06:30N 34°39' E 135°26'4 8.7
2018-Jun-11 06:00N 34°37' E 135°21'510.7
2018-Jun-11 05:30N 34°31' E 135°21'4 0.1
2018-Jun-09 22:12N 34°27' E 135°21'0 0.0
2018-Jun-09 21:42N 34°27' E 135°21'0 0.0
2018-Jun-09 21:18N 34°27' E 135°21'0 0.0
2018-Jun-09 11:06N 34°27' E 135°21'0 0.0
2018-Jun-09 11:00N 34°27' E 135°21'3 5.7
2018-Jun-09 10:30N 34°29' E 135°19'5 9.9
2018-Jun-09 10:00N 34°31' E 135°13'510.1
2018-Jun-09 09:30N 34°34' E 135°08'5 9.6
2018-Jun-09 09:00N 34°36' E 135°03'6 7.9
2018-Jun-09 08:17N 34°36' E 134°56'29 1.2
2018-Jun-08 07:26N 34°26' E 134°23'511.3
2018-Jun-08 06:59N 34°27' E 134°28'611.5
2018-Jun-08 06:30N 34°29' E 134°35'611.9
2018-Jun-08 06:00N 34°32' E 134°42'611.7
2018-Jun-08 05:30N 34°34' E 134°48'912.0
2018-Jun-08 04:47N 34°37' E 134°58'410.6
2018-Jun-08 04:22N 34°36' E 135°03'411.0
2018-Jun-08 04:00N 34°37' E 135°08'611.4
2018-Jun-08 03:29N 34°37' E 135°15'611.4
2018-Jun-08 03:00N 34°39' E 135°22'5 2.5
2018-Jun-08 01:00N 34°39' E 135°28'0 0.0
2018-Jun-07 23:42N 34°39' E 135°28'0 0.0
2018-Jun-07 23:30N 34°39' E 135°28'0 0.0
2018-Jun-07 23:00N 34°39' E 135°28'0 0.0
2018-Jun-07 22:24N 34°39' E 135°28'0 0.0
2018-Jun-07 22:00N 34°39' E 135°28'0 0.0
2018-Jun-07 21:30N 34°39' E 135°28'0 0.0
2018-Jun-07 21:00N 34°39' E 135°28'0 0.0
2018-Jun-07 20:30N 34°39' E 135°28'0 0.0
2018-Jun-07 20:00N 34°39' E 135°28'0 0.0
2018-Jun-07 19:24N 34°39' E 135°28'0 0.0
2018-Jun-07 19:00N 34°39' E 135°28'0 0.0
2018-Jun-07 18:30N 34°39' E 135°28'0 0.0
2018-Jun-07 17:54N 34°39' E 135°28'0 0.0
2018-Jun-07 17:30N 34°39' E 135°28'0 0.0
2018-Jun-07 16:54N 34°39' E 135°28'0 0.0
2018-Jun-07 16:30N 34°39' E 135°28'0 0.0
2018-Jun-07 16:00N 34°39' E 135°28'0 0.0
2018-Jun-07 15:18N 34°39' E 135°28'0 0.0
2018-Jun-07 15:00N 34°39' E 135°28'0 0.0
2018-Jun-07 14:30N 34°39' E 135°28'0 0.0
2018-Jun-07 14:00N 34°39' E 135°28'1 2.0
2018-Jun-07 13:30N 34°39' E 135°27'4 8.2
2018-Jun-07 13:00N 34°37' E 135°22'510.3
2018-Jun-07 12:30N 34°36' E 135°16'510.6
2018-Jun-07 12:00N 34°35' E 135°10'510.9
2018-Jun-07 11:30N 34°36' E 135°03'610.7
2018-Jun-07 10:58N 34°37' E 134°56'  
Track history (hours):
 
Tides and Currents Weather Stations Pressure Air Temp Water Temp Dewpoint Dewpoint Depression Visibility Wind Speed Wind Dir Waves Ship Positions

Daisin Maru

Last reported at 2018-Jun-13 07:19 UTC. Time now 2018-Jun-19 20:05 UTC.
Position N 34°26' E 134°25'.

Length 59 m; draft 3.5 m.

Type: Cargo ship. MMSI: 431003459.

Date/timePositionNaut miles runAvg speedWind from/ knotsBaromVisibWave heightAir tempDewpointWater temp
2018-Jun-13 07:19N 34°26' E 134°25'410.8
2018-Jun-13 06:59N 34°27' E 134°29'510.7
2018-Jun-13 06:30N 34°29' E 134°35'510.4
2018-Jun-13 06:00N 34°31' E 134°41'510.0
2018-Jun-13 05:30N 34°33' E 134°46'4 9.0
2018-Jun-13 05:00N 34°35' E 134°51'5 7.8
2018-Jun-13 04:25N 34°37' E 134°56'5 6.1
2018-Jun-13 03:37N 34°37' E 135°02'1 5.5
2018-Jun-13 03:29N 34°36' E 135°03'4 8.2
2018-Jun-13 03:00N 34°36' E 135°08'510.4
2018-Jun-13 02:30N 34°37' E 135°14'510.7
2018-Jun-13 02:00N 34°38' E 135°20'510.4
2018-Jun-13 01:30N 34°39' E 135°27'1 1.9
2018-Jun-13 01:00N 34°39' E 135°28'0 0.0
2018-Jun-13 00:27N 34°39' E 135°28'0 0.0
2018-Jun-12 22:45N 34°39' E 135°28'0 0.0
2018-Jun-12 22:21N 34°39' E 135°28'0 0.0
2018-Jun-12 21:51N 34°39' E 135°28'0 0.0
2018-Jun-12 21:27N 34°39' E 135°28'0 0.0
2018-Jun-12 20:57N 34°39' E 135°28'0 0.0
2018-Jun-12 20:27N 34°39' E 135°28'0 0.0
2018-Jun-12 19:57N 34°39' E 135°28'0 0.0
2018-Jun-12 19:27N 34°39' E 135°28'0 0.0
2018-Jun-12 18:57N 34°39' E 135°28'0 0.0
2018-Jun-12 18:27N 34°39' E 135°28'0 0.0
2018-Jun-12 17:51N 34°39' E 135°28'0 0.0
2018-Jun-12 17:27N 34°39' E 135°28'0 0.0
2018-Jun-12 16:57N 34°39' E 135°28'0 0.0
2018-Jun-12 16:27N 34°39' E 135°28'0 0.0
2018-Jun-12 15:51N 34°39' E 135°28'0 0.0
2018-Jun-12 15:27N 34°39' E 135°28'0 0.0
2018-Jun-12 14:51N 34°39' E 135°28'0 0.0
2018-Jun-12 14:27N 34°39' E 135°28'0 0.0
2018-Jun-12 13:57N 34°39' E 135°28'0 0.0
2018-Jun-12 13:27N 34°39' E 135°28'0 0.0
2018-Jun-12 12:57N 34°39' E 135°28'0 0.0
2018-Jun-12 12:27N 34°39' E 135°28'0 0.0
2018-Jun-12 11:57N 34°39' E 135°28'0 0.0
2018-Jun-12 11:21N 34°39' E 135°28'0 0.0
2018-Jun-12 10:57N 34°39' E 135°28'0 0.0
2018-Jun-12 10:27N 34°39' E 135°28'0 0.0
2018-Jun-12 09:57N 34°39' E 135°28'0 0.0
2018-Jun-12 09:27N 34°39' E 135°28'0 0.0
2018-Jun-12 08:57N 34°39' E 135°28'0 0.0
2018-Jun-12 08:27N 34°39' E 135°28'0 0.0
2018-Jun-12 07:57N 34°39' E 135°28'0 0.0
2018-Jun-12 07:27N 34°39' E 135°28'0 0.0
2018-Jun-12 06:57N 34°39' E 135°28'0 0.0
2018-Jun-12 06:27N 34°39' E 135°28'0 0.0
2018-Jun-12 05:57N 34°39' E 135°28'0 0.0
2018-Jun-12 05:21N 34°39' E 135°28'0 0.0
2018-Jun-12 04:27N 34°39' E 135°28'0 0.0
2018-Jun-12 03:51N 34°39' E 135°28'0 0.0
2018-Jun-12 03:21N 34°39' E 135°28'0 0.0
2018-Jun-12 02:51N 34°39' E 135°28'0 0.0
2018-Jun-12 02:27N 34°39' E 135°28'0 0.0
2018-Jun-12 01:51N 34°39' E 135°28'0 0.0
2018-Jun-12 01:15N 34°39' E 135°28'0 0.0
2018-Jun-12 00:57N 34°39' E 135°28'0 0.0
2018-Jun-12 00:09N 34°39' E 135°28'0 0.0
2018-Jun-11 23:39N 34°39' E 135°28'0 0.0
2018-Jun-11 23:21N 34°39' E 135°28'0 0.0
2018-Jun-11 22:57N 34°39' E 135°28'0 0.0
2018-Jun-11 21:51N 34°39' E 135°28'0 0.0
2018-Jun-11 21:27N 34°39' E 135°28'0 0.0
2018-Jun-11 20:57N 34°39' E 135°28'0 0.0
2018-Jun-11 19:15N 34°39' E 135°28'0 0.0
2018-Jun-11 18:51N 34°39' E 135°28'0 0.0
2018-Jun-11 18:27N 34°39' E 135°28'0 0.0
2018-Jun-11 17:57N 34°39' E 135°28'0 0.0
2018-Jun-11 17:27N 34°39' E 135°28'0 0.0
2018-Jun-11 16:57N 34°39' E 135°28'0 0.0
2018-Jun-11 16:27N 34°39' E 135°28'0 0.0
2018-Jun-11 15:57N 34°39' E 135°28'0 0.0
2018-Jun-11 15:27N 34°39' E 135°28'0 0.0
2018-Jun-11 14:57N 34°39' E 135°28'0 0.0
2018-Jun-11 14:27N 34°39' E 135°28'0 0.0
2018-Jun-11 13:51N 34°39' E 135°28'0 0.0
2018-Jun-11 13:21N 34°39' E 135°28'0 0.0
2018-Jun-11 12:57N 34°39' E 135°28'0 0.0
2018-Jun-11 12:27N 34°39' E 135°28'0 0.0
2018-Jun-11 11:51N 34°39' E 135°28'0 0.0
2018-Jun-11 11:27N 34°39' E 135°28'0 0.0
2018-Jun-11 10:57N 34°39' E 135°28'0 0.0
2018-Jun-11 10:21N 34°39' E 135°28'0 0.0
2018-Jun-11 07:03N 34°39' E 135°28'0 0.0
2018-Jun-11 06:51N 34°39' E 135°28'2 5.3
2018-Jun-11 06:30N 34°39' E 135°26'4 8.7
2018-Jun-11 06:00N 34°37' E 135°21'510.7
2018-Jun-11 05:30N 34°31' E 135°21'4 0.1
2018-Jun-09 22:12N 34°27' E 135°21'0 0.0
2018-Jun-09 21:42N 34°27' E 135°21'0 0.0
2018-Jun-09 21:18N 34°27' E 135°21'0 0.0
2018-Jun-09 11:06N 34°27' E 135°21'0 0.0
2018-Jun-09 11:00N 34°27' E 135°21'3 5.7
2018-Jun-09 10:30N 34°29' E 135°19'5 9.9
2018-Jun-09 10:00N 34°31' E 135°13'510.1
2018-Jun-09 09:30N 34°34' E 135°08'5 9.6
2018-Jun-09 09:00N 34°36' E 135°03'6 7.9
2018-Jun-09 08:17N 34°36' E 134°56'29 1.2
2018-Jun-08 07:26N 34°26' E 134°23'511.3
2018-Jun-08 06:59N 34°27' E 134°28'611.5
2018-Jun-08 06:30N 34°29' E 134°35'611.9
2018-Jun-08 06:00N 34°32' E 134°42'611.7
2018-Jun-08 05:30N 34°34' E 134°48'912.0
2018-Jun-08 04:47N 34°37' E 134°58'410.6
2018-Jun-08 04:22N 34°36' E 135°03'411.0
2018-Jun-08 04:00N 34°37' E 135°08'611.4
2018-Jun-08 03:29N 34°37' E 135°15'611.4
2018-Jun-08 03:00N 34°39' E 135°22'5 2.5
2018-Jun-08 01:00N 34°39' E 135°28'0 0.0
2018-Jun-07 23:42N 34°39' E 135°28'0 0.0
2018-Jun-07 23:30N 34°39' E 135°28'0 0.0
2018-Jun-07 23:00N 34°39' E 135°28'0 0.0
2018-Jun-07 22:24N 34°39' E 135°28'0 0.0
2018-Jun-07 22:00N 34°39' E 135°28'0 0.0
2018-Jun-07 21:30N 34°39' E 135°28'0 0.0
2018-Jun-07 21:00N 34°39' E 135°28'0 0.0
2018-Jun-07 20:30N 34°39' E 135°28'0 0.0
2018-Jun-07 20:00N 34°39' E 135°28'0 0.0
2018-Jun-07 19:24N 34°39' E 135°28'0 0.0
2018-Jun-07 19:00N 34°39' E 135°28'0 0.0
2018-Jun-07 18:30N 34°39' E 135°28'0 0.0
2018-Jun-07 17:54N 34°39' E 135°28'0 0.0
2018-Jun-07 17:30N 34°39' E 135°28'0 0.0
2018-Jun-07 16:54N 34°39' E 135°28'0 0.0
2018-Jun-07 16:30N 34°39' E 135°28'0 0.0
2018-Jun-07 16:00N 34°39' E 135°28'0 0.0
2018-Jun-07 15:18N 34°39' E 135°28'0 0.0
2018-Jun-07 15:00N 34°39' E 135°28'0 0.0
2018-Jun-07 14:30N 34°39' E 135°28'0 0.0
2018-Jun-07 14:00N 34°39' E 135°28'1 2.0
2018-Jun-07 13:30N 34°39' E 135°27'4 8.2
2018-Jun-07 13:00N 34°37' E 135°22'510.3
2018-Jun-07 12:30N 34°36' E 135°16'510.6
2018-Jun-07 12:00N 34°35' E 135°10'510.9
2018-Jun-07 11:30N 34°36' E 135°03'610.7
2018-Jun-07 10:58N 34°37' E 134°56'  

Dump ship's entire track history